Time;durP1;ratioP1;P1;durP2;ratioP2;P2;SDS_P1;SDS_P2;PMS_P1;PMS_P2;Temp;Humidity;BMP_temperature;BMP_pressure;BME280_temperature;BME280_humidity;BME280_pressure;Samples;Min_cycle;Max_cycle;Signal;HPM_P1;HPM_P2
2020/12/28 00:01:45;;;;;;;6.70;2.92;;;;;;;2.89;77.01;95598.13;5086018;28;20147;-70
2020/12/28 00:04:11;;;;;;;4.13;3.28;;;;;;;2.83;76.10;95589.81;5078692;28;20020;-71
2020/12/28 00:06:36;;;;;;;5.43;2.78;;;;;;;2.90;77.97;95589.56;5079170;28;20039;-71
2020/12/28 00:09:04;;;;;;;4.85;3.05;;;;;;;2.82;78.65;95588.16;5085587;28;20103;-72
2020/12/28 00:11:29;;;;;;;5.40;2.72;;;;;;;2.70;76.89;95598.84;5073699;28;20024;-72
2020/12/28 00:13:54;;;;;;;7.32;3.22;;;;;;;2.70;77.25;95616.72;5084687;28;20040;-72
2020/12/28 00:16:19;;;;;;;3.72;3.00;;;;;;;2.69;78.18;95601.47;5079774;28;20052;-72
2020/12/28 00:18:45;;;;;;;5.68;3.13;;;;;;;2.70;78.65;95603.94;5090710;28;20032;-72
2020/12/28 00:21:10;;;;;;;4.00;2.80;;;;;;;2.61;78.07;95611.13;5074004;28;20392;-71
2020/12/28 00:23:36;;;;;;;5.43;3.17;;;;;;;2.47;78.47;95597.19;5087089;28;20020;-72
2020/12/28 00:26:02;;;;;;;3.97;2.55;;;;;;;2.43;78.89;95605.84;5077076;28;20024;-72
2020/12/28 00:28:27;;;;;;;5.15;3.10;;;;;;;2.49;78.58;95599.66;5080143;28;20098;-71
2020/12/28 00:30:52;;;;;;;3.90;2.53;;;;;;;2.52;77.63;95599.56;5083912;28;20074;-72
2020/12/28 00:33:18;;;;;;;3.88;2.60;;;;;;;2.45;78.68;95605.78;5073922;28;20027;-72
2020/12/28 00:35:44;;;;;;;4.60;2.83;;;;;;;2.52;78.22;95595.28;5086336;28;20024;-72
2020/12/28 00:38:09;;;;;;;4.70;2.88;;;;;;;2.56;76.81;95601.09;5078713;28;20023;-72
2020/12/28 00:40:35;;;;;;;3.70;2.67;;;;;;;2.46;78.19;95594.66;5082746;28;20020;-71
2020/12/28 00:43:00;;;;;;;3.50;2.70;;;;;;;2.44;78.14;95591.34;5074055;28;20028;-72
2020/12/28 00:45:25;;;;;;;3.42;3.13;;;;;;;2.55;78.02;95586.66;5090635;28;20138;-71
2020/12/28 00:47:50;;;;;;;3.55;2.90;;;;;;;2.53;78.25;95588.44;5073991;28;20035;-74
2020/12/28 00:50:16;;;;;;;6.65;3.05;;;;;;;2.35;77.82;95592.50;5073895;28;20028;-74
2020/12/28 00:52:41;;;;;;;4.97;2.88;;;;;;;2.42;77.95;95588.84;5073574;28;20051;-74
2020/12/28 00:55:06;;;;;;;7.30;2.95;;;;;;;2.23;78.51;95592.97;5074035;28;20459;-74
2020/12/28 00:57:32;;;;;;;3.97;2.85;;;;;;;2.15;78.77;95580.47;5073671;28;20028;-74
2020/12/28 00:59:57;;;;;;;6.32;3.13;;;;;;;2.15;79.77;95585.59;5073724;28;20055;-74
2020/12/28 07:00:22;;;;;;;1.20;1.10;;;;;;;3.86;87.43;95414.03;6025718;23;20862;-75
2020/12/28 07:02:52;;;;;;;1.13;1.02;;;;;;;3.86;87.54;95414.84;4992127;28;20035;-75
2020/12/28 07:05:26;;;;;;;1.00;1.00;;;;;;;3.94;87.33;95414.50;4992091;28;20033;-73
2020/12/28 07:07:52;;;;;;;1.05;1.00;;;;;;;3.92;87.15;95412.94;4992220;28;20026;-73
2020/12/28 07:10:19;;;;;;;1.40;1.20;;;;;;;3.92;87.05;95407.81;4992104;28;20035;-73
2020/12/28 07:12:45;;;;;;;3.28;1.30;;;;;;;3.93;87.13;95409.47;4992168;28;20026;-75
2020/12/28 07:15:12;;;;;;;1.65;1.40;;;;;;;4.05;85.90;95409.72;4992004;28;20035;-73
2020/12/28 07:17:37;;;;;;;3.28;1.10;;;;;;;3.96;86.90;95415.25;4992581;28;20534;-73
2020/12/28 07:20:08;;;;;;;4.07;1.67;;;;;;;3.91;87.10;95416.38;4992005;28;20102;-73
2020/12/28 07:22:36;;;;;;;5.32;2.55;;;;;;;3.97;86.33;95421.25;4991988;28;20049;-73
2020/12/28 07:25:03;;;;;;;2.05;1.85;;;;;;;4.00;86.56;95427.03;4992047;28;20030;-73
2020/12/28 07:27:29;;;;;;;1.63;1.52;;;;;;;4.01;86.37;95422.72;4991911;28;20053;-74
2020/12/28 07:29:54;;;;;;;3.35;1.60;;;;;;;4.02;86.80;95429.53;4992097;28;20446;-73
2020/12/28 07:32:20;;;;;;;1.92;1.67;;;;;;;3.98;87.06;95433.13;4991416;28;20030;-74
2020/12/28 07:34:53;;;;;;;2.47;1.20;;;;;;;4.04;86.97;95422.59;4991929;28;20022;-74
2020/12/28 07:37:19;;;;;;;1.17;1.08;;;;;;;4.05;85.80;95419.97;4991706;28;20101;-74
2020/12/28 07:39:47;;;;;;;4.88;1.23;;;;;;;3.92;87.88;95420.63;4991764;28;20115;-74
2020/12/28 07:42:24;;;;;;;2.08;1.40;;;;;;;3.90;87.93;95427.53;4991522;28;20579;-74
2020/12/28 07:44:56;;;;;;;0.95;0.95;;;;;;;3.92;87.84;95418.06;4991831;28;20406;-74
2020/12/28 07:47:44;;;;;;;4.70;1.45;;;;;;;3.85;89.04;95413.19;4991456;28;20026;-74
2020/12/28 07:50:14;;;;;;;5.30;1.10;;;;;;;3.73;89.90;95413.78;4991645;28;20030;-74
2020/12/28 07:52:51;;;;;;;1.37;1.10;;;;;;;3.73;90.56;95408.66;4974057;28;20053;-74
2020/12/28 07:55:20;;;;;;;3.65;1.13;;;;;;;3.84;88.95;95406.41;4991805;28;20344;-74
2020/12/28 07:57:50;;;;;;;2.60;0.90;;;;;;;3.73;89.86;95403.53;4991524;28;20034;-74
2020/12/28 08:00:17;;;;;;;2.42;1.20;;;;;;;3.71;90.17;95400.19;4974204;28;20488;-74
2020/12/28 08:02:54;;;;;;;1.75;1.27;;;;;;;3.72;90.79;95391.59;4991382;28;20033;-73
2020/12/28 08:05:21;;;;;;;2.05;1.17;;;;;;;3.71;90.34;95384.00;4991579;28;20403;-73
2020/12/28 08:07:47;;;;;;;3.28;2.10;;;;;;;3.78;91.17;95381.09;4991286;28;20105;-73
2020/12/28 08:10:12;;;;;;;2.58;2.00;;;;;;;3.86;91.20;95376.44;4991516;28;20446;-73
2020/12/28 08:12:49;;;;;;;16.60;10.27;;;;;;;3.72;90.77;95363.44;4991283;28;20539;-73
2020/12/28 08:15:27;;;;;;;1.70;1.60;;;;;;;3.83;90.66;95361.25;4991647;28;20080;-73
2020/12/28 08:18:09;;;;;;;3.67;3.30;;;;;;;3.70;90.66;95343.94;4991489;28;20031;-73
2020/12/28 08:20:36;;;;;;;2.22;2.03;;;;;;;3.75;90.76;95350.50;4991162;28;20431;-73
2020/12/28 08:23:01;;;;;;;1.58;1.48;;;;;;;3.77;90.87;95341.03;4991263;28;20037;-73
2020/12/28 08:25:28;;;;;;;1.10;1.10;;;;;;;3.96;89.14;95323.06;4991350;28;20026;-73
2020/12/28 08:27:56;;;;;;;5.57;1.35;;;;;;;4.15;88.27;95333.25;4991280;28;20061;-73
2020/12/28 08:30:21;;;;;;;0.70;0.70;;;;;;;4.22;87.54;95344.88;4991302;28;20030;-73
2020/12/28 08:32:48;;;;;;;3.17;1.40;;;;;;;4.24;87.37;95353.31;4990901;28;20109;-73
2020/12/28 08:35:13;;;;;;;4.50;2.20;;;;;;;4.10;88.75;95356.53;4991271;28;20498;-73
2020/12/28 08:37:47;;;;;;;5.43;2.40;;;;;;;4.11;89.14;95362.50;4991291;28;20101;-73
2020/12/28 08:40:14;;;;;;;5.20;2.50;;;;;;;4.05;90.35;95363.59;4991322;28;20022;-73
2020/12/28 08:42:39;;;;;;;16.15;4.65;;;;;;;3.70;92.58;95378.06;4973550;28;20022;-74
2020/12/28 08:45:05;;;;;;;10.30;4.38;;;;;;;3.61;93.48;95384.41;4991217;28;20030;-73
2020/12/28 08:47:30;;;;;;;9.93;3.90;;;;;;;3.53;93.56;95390.78;4991107;28;20030;-73
2020/12/28 08:49:56;;;;;;;5.63;3.80;;;;;;;3.52;93.71;95394.25;4991308;28;20018;-73
2020/12/28 08:52:23;;;;;;;10.98;3.53;;;;;;;3.41;93.88;95416.94;4990948;28;20027;-74
2020/12/28 08:54:52;;;;;;;4.78;3.60;;;;;;;3.46;93.21;95415.00;4991406;28;20430;-75
2020/12/28 08:57:22;;;;;;;5.38;3.10;;;;;;;3.41;93.12;95424.59;4990975;28;20026;-75
2020/12/28 08:59:47;;;;;;;;;;;;;;;3.43;93.39;95422.78;4992785;28;20034;-71
2020/12/28 09:02:18;;;;;;;4.00;3.10;;;;;;;3.50;92.95;95430.16;4994350;28;20652;-72
2020/12/28 09:04:44;;;;;;;6.63;3.20;;;;;;;3.55;93.21;95424.81;4994437;28;20073;-71
2020/12/28 09:07:10;;;;;;;5.57;2.97;;;;;;;3.60;92.35;95423.72;4994800;28;20023;-75
2020/12/28 09:09:35;;;;;;;3.50;2.30;;;;;;;3.68;91.82;95423.38;4994625;28;20030;-73
2020/12/28 09:12:01;;;;;;;3.55;2.22;;;;;;;3.76;91.83;95428.97;4994296;28;20033;-70
2020/12/28 09:14:26;;;;;;;3.40;1.95;;;;;;;3.81;91.25;95437.28;4994331;28;20038;-74
2020/12/28 09:16:51;;;;;;;6.03;2.10;;;;;;;3.90;91.23;95440.31;4994448;28;20036;-73
2020/12/28 09:19:17;;;;;;;4.88;2.50;;;;;;;3.88;91.56;95434.47;4994208;28;20081;-74
2020/12/28 09:21:42;;;;;;;5.80;2.63;;;;;;;3.85;91.34;95441.38;4993970;28;20030;-76
2020/12/28 09:24:07;;;;;;;5.10;3.35;;;;;;;3.78;91.64;95432.31;4976742;28;20030;-74
2020/12/28 09:26:34;;;;;;;6.32;2.97;;;;;;;3.83;91.64;95434.66;4994297;28;20022;-76
2020/12/28 09:29:00;;;;;;;3.95;3.10;;;;;;;3.84;91.04;95438.88;4994167;28;20022;-77
2020/12/28 09:31:25;;;;;;;4.43;2.95;;;;;;;3.88;91.98;95442.97;4993972;28;20029;-75
2020/12/28 09:33:50;;;;;;;6.05;2.85;;;;;;;3.94;90.79;95439.28;4993790;28;20077;-74
2020/12/28 09:36:20;;;;;;;2.65;2.30;;;;;;;3.92;90.22;95444.50;4994012;28;20052;-75
2020/12/28 09:38:46;;;;;;;2.53;2.30;;;;;;;3.92;91.25;95434.25;4994016;28;20033;-74
2020/12/28 09:41:11;;;;;;;6.22;2.90;;;;;;;3.91;91.58;95424.88;4993986;28;20030;-73
2020/12/28 09:43:38;;;;;;;7.97;2.63;;;;;;;3.90;91.16;95424.97;4993943;28;20015;-74
2020/12/28 09:46:03;;;;;;;5.10;2.83;;;;;;;3.82;91.12;95433.84;4993799;28;20023;-74
2020/12/28 09:48:29;;;;;;;7.07;2.78;;;;;;;3.81;91.47;95421.91;4993752;28;20480;-77
2020/12/28 09:50:54;;;;;;;3.75;2.88;;;;;;;3.74;91.07;95410.31;4993894;28;20037;-74
2020/12/28 09:53:20;;;;;;;3.45;2.72;;;;;;;3.74;90.62;95410.31;4976279;28;20026;-74
2020/12/28 09:55:45;;;;;;;4.78;3.40;;;;;;;3.80;91.39;95412.56;4993701;28;20109;-75
2020/12/28 09:58:11;;;;;;;3.30;2.70;;;;;;;3.77;91.47;95399.06;4993636;28;20026;-70
2020/12/28 10:00:36;;;;;;;5.05;2.80;;;;;;;3.79;90.88;95408.38;4994200;28;20038;-75
2020/12/28 10:03:02;;;;;;;3.58;3.13;;;;;;;3.81;91.69;95398.03;4994730;28;20025;-73
2020/12/28 10:05:27;;;;;;;6.45;3.67;;;;;;;3.78;91.41;95399.03;4977077;28;20030;-75
2020/12/28 10:07:52;;;;;;;3.67;3.38;;;;;;;3.77;91.48;95384.56;4994169;28;20057;-76
2020/12/28 10:10:18;;;;;;;10.63;4.10;;;;;;;3.83;91.68;95384.28;4976518;28;20129;-74
2020/12/28 10:12:43;;;;;;;8.85;3.75;;;;;;;4.00;91.00;95385.22;4996209;28;20113;-76
2020/12/28 10:15:08;;;;;;;10.23;4.53;;;;;;;3.90;91.70;95389.13;4997085;28;20034;-69
2020/12/28 10:17:35;;;;;;;10.30;4.18;;;;;;;3.93;91.69;95387.25;4993545;28;20030;-73
2020/12/28 10:20:01;;;;;;;9.18;4.47;;;;;;;3.90;91.66;95391.66;4994019;28;20026;-80
2020/12/28 10:22:27;;;;;;;15.45;5.00;;;;;;;3.91;91.34;95395.88;4994020;28;20022;-72
2020/12/28 10:24:52;;;;;;;5.10;4.00;;;;;;;3.90;90.59;95392.50;4993200;28;20157;-74
2020/12/28 10:27:18;;;;;;;5.15;4.10;;;;;;;3.96;90.77;95393.94;4993154;28;20471;-75
2020/12/28 10:29:43;;;;;;;6.10;4.00;;;;;;;3.85;90.39;95387.59;4993481;28;20026;-78
2020/12/28 10:32:09;;;;;;;5.20;4.07;;;;;;;3.90;90.66;95381.44;4992898;28;20038;-79
2020/12/28 10:34:34;;;;;;;4.60;3.40;;;;;;;3.91;90.00;95375.41;4992824;28;20211;-78
2020/12/28 10:36:59;;;;;;;6.22;3.72;;;;;;;3.93;89.80;95384.69;4992805;28;20018;-78
2020/12/28 10:39:25;;;;;;;6.80;4.50;;;;;;;3.92;90.33;95382.22;4994300;28;20101;-77
2020/12/28 10:41:50;;;;;;;6.60;4.60;;;;;;;3.99;90.20;95378.44;4993851;28;20476;-72
2020/12/28 10:44:18;;;;;;;4.63;4.07;;;;;;;4.06;90.05;95379.81;4992749;28;20443;-78
2020/12/28 10:46:44;;;;;;;6.47;4.50;;;;;;;4.14;89.98;95382.84;4993613;28;20034;-74
2020/12/28 10:49:09;;;;;;;5.70;4.18;;;;;;;4.16;89.68;95375.06;4993011;28;20062;-72
2020/12/28 10:51:34;;;;;;;6.15;4.60;;;;;;;4.12;88.98;95379.53;4975397;28;20101;-78
2020/12/28 10:54:00;;;;;;;6.25;4.60;;;;;;;4.14;88.71;95372.59;4992503;28;20475;-72
2020/12/28 10:56:30;;;;;;;10.65;5.18;;;;;;;4.21;89.45;95373.16;4992626;28;20487;-77
2020/12/28 10:58:58;;;;;;;12.85;6.32;;;;;;;4.08;89.48;95368.59;4992937;28;20368;-76
2020/12/28 11:01:25;;;;;;;10.13;5.88;;;;;;;4.05;89.75;95362.78;4992406;28;20030;-76
2020/12/28 11:03:52;;;;;;;9.73;5.28;;;;;;;4.02;90.36;95357.81;4975299;28;20459;-75
2020/12/28 11:06:18;;;;;;;14.75;8.15;;;;;;;3.98;90.31;95351.19;4983573;28;20081;-73
2020/12/28 11:08:44;;;;;;;12.45;6.85;;;;;;;3.94;91.39;95349.66;4992083;28;20019;-73
2020/12/28 11:11:09;;;;;;;13.25;7.07;;;;;;;3.87;91.13;95338.88;4992180;28;20034;-73
2020/12/28 11:13:35;;;;;;;12.15;7.05;;;;;;;3.82;91.03;95338.25;4992956;28;20027;-75
2020/12/28 11:16:00;;;;;;;17.77;7.25;;;;;;;3.91;91.21;95334.44;4992300;28;20028;-78
2020/12/28 11:18:26;;;;;;;15.00;7.50;;;;;;;4.03;89.86;95333.84;4992311;28;20034;-75
2020/12/28 11:20:51;;;;;;;10.38;6.40;;;;;;;3.98;90.21;95321.28;4991947;28;20115;-76
2020/12/28 11:23:17;;;;;;;18.65;7.72;;;;;;;3.88;90.40;95324.34;4991813;28;20034;-73
2020/12/28 11:25:42;;;;;;;15.38;7.85;;;;;;;3.90;90.79;95308.00;4992092;28;20128;-76
2020/12/28 11:28:08;;;;;;;14.77;9.45;;;;;;;3.93;91.22;95309.59;4974711;28;20030;-72
2020/12/28 11:30:33;;;;;;;16.95;9.85;;;;;;;4.13;90.80;95304.34;4992152;28;20372;-72
2020/12/28 11:32:59;;;;;;;12.75;7.57;;;;;;;4.10;90.37;95289.09;4991866;28;20038;-78
2020/12/28 11:35:24;;;;;;;14.13;7.60;;;;;;;4.12;89.73;95287.31;4991997;28;20033;-74
2020/12/28 11:37:50;;;;;;;11.93;6.63;;;;;;;4.21;88.43;95286.84;4992695;28;20030;-75
2020/12/28 11:40:16;;;;;;;16.63;9.07;;;;;;;4.20;89.01;95284.34;4974401;28;20037;-78
2020/12/28 11:42:41;;;;;;;7.82;5.15;;;;;;;4.24;88.50;95273.88;4991866;28;20022;-74
2020/12/28 11:45:08;;;;;;;8.30;5.82;;;;;;;4.21;88.62;95271.50;4991671;28;20026;-73
2020/12/28 11:47:35;;;;;;;20.23;7.75;;;;;;;4.10;90.32;95289.09;4991869;28;20163;-78
2020/12/28 11:53:48;;;;;;;19.48;8.38;;;;;;;4.02;90.84;95275.84;5922135;23;20030;-72
2020/12/28 11:56:13;;;;;;;12.63;6.72;;;;;;;4.11;89.99;95280.53;4952301;28;20375;-71
2020/12/28 11:58:42;;;;;;;13.07;6.95;;;;;;;4.07;90.02;95268.78;4968854;28;20043;-72
2020/12/28 12:01:12;;;;;;;12.57;6.78;;;;;;;4.11;90.39;95276.25;4952904;29;20371;-72
2020/12/28 12:03:38;;;;;;;13.98;7.65;;;;;;;4.06;90.45;95269.66;4952646;29;20023;-71
2020/12/28 12:06:03;;;;;;;16.35;8.13;;;;;;;4.10;90.85;95269.44;4952688;29;20027;-72
2020/12/28 12:08:28;;;;;;;15.00;8.23;;;;;;;4.15;90.73;95269.22;4969477;23;20051;-73
2020/12/28 12:10:54;;;;;;;9.85;7.25;;;;;;;4.25;89.68;95272.97;4971940;28;20035;-74
2020/12/28 12:13:20;;;;;;;14.85;7.00;;;;;;;4.23;89.60;95279.91;4972809;28;20383;-74
2020/12/28 12:15:46;;;;;;;15.52;7.65;;;;;;;4.42;88.74;95281.56;4979069;28;20407;-72
2020/12/28 12:18:12;;;;;;;18.20;7.60;;;;;;;4.26;89.32;95284.91;4971372;28;20015;-73
2020/12/28 12:20:38;;;;;;;23.10;10.25;;;;;;;4.22;89.59;95277.44;4952446;29;20150;-72
2020/12/28 12:23:04;;;;;;;19.05;11.65;;;;;;;4.19;89.11;95283.53;4963535;28;20109;-72
2020/12/28 12:25:30;;;;;;;12.25;7.25;;;;;;;4.31;88.38;95275.25;4957522;28;20031;-72
2020/12/28 12:27:56;;;;;;;17.65;8.07;;;;;;;4.34;89.32;95272.50;4955898;28;20031;-73
2020/12/28 12:30:22;;;;;;;14.20;7.15;;;;;;;4.28;89.03;95272.81;4966085;28;20403;-73
2020/12/28 12:32:47;;;;;;;11.80;5.82;;;;;;;4.29;87.06;95274.47;4961064;28;20395;-73
2020/12/28 12:35:13;;;;;;;12.27;6.70;;;;;;;4.24;88.34;95271.31;4961332;28;20031;-73
2020/12/28 12:37:38;;;;;;;16.10;8.88;;;;;;;4.29;88.21;95271.91;4971612;28;20029;-73
2020/12/28 12:40:03;;;;;;;12.88;6.97;;;;;;;4.41;88.27;95272.22;4959254;28;20369;-73
2020/12/28 12:42:29;;;;;;;9.95;6.35;;;;;;;4.43;88.16;95272.97;4968630;28;20020;-70
2020/12/28 12:44:54;;;;;;;8.98;6.13;;;;;;;4.44;88.08;95284.88;4965831;28;20444;-75
2020/12/28 12:47:19;;;;;;;10.93;6.55;;;;;;;4.42;88.29;95279.00;4961963;28;20404;-74
2020/12/28 12:49:44;;;;;;;13.15;6.25;;;;;;;4.46;87.77;95285.63;4963925;28;20468;-72
2020/12/28 12:52:14;;;;;;;10.50;5.68;;;;;;;4.39;87.99;95298.75;4970944;28;20051;-76
2020/12/28 12:54:40;;;;;;;10.23;5.30;;;;;;;4.45;87.58;95294.22;4963918;28;20078;-72
2020/12/28 12:57:05;;;;;;;11.73;6.07;;;;;;;4.44;88.17;95302.81;4963786;28;20035;-74
2020/12/28 12:59:31;;;;;;;10.93;5.95;;;;;;;4.49;88.15;95311.09;4970301;28;20034;-76
2020/12/28 13:01:57;;;;;;;11.40;7.20;;;;;;;4.53;88.14;95310.88;4959124;28;20023;-74
2020/12/28 13:04:31;;;;;;;14.90;7.03;;;;;;;4.46;88.68;95311.28;4969402;28;20536;-75
2020/12/28 13:06:58;;;;;;;13.90;7.75;;;;;;;4.41;88.06;95329.44;4965766;28;20031;-74
2020/12/28 13:09:23;;;;;;;15.90;7.03;;;;;;;4.34;88.07;95310.94;4961121;28;20039;-74
2020/12/28 13:11:48;;;;;;;21.05;10.20;;;;;;;4.49;89.65;95305.97;4971233;28;20546;-74
2020/12/28 13:14:14;;;;;;;15.73;9.75;;;;;;;4.13;91.11;95309.44;4959769;28;20030;-74
2020/12/28 13:16:39;;;;;;;18.98;9.73;;;;;;;4.10;93.10;95309.59;4966773;28;20032;-74
2020/12/28 13:19:04;;;;;;;9.15;6.82;;;;;;;4.13;90.40;95314.56;4966530;28;20049;-74
2020/12/28 13:21:29;;;;;;;16.83;7.43;;;;;;;4.16;88.77;95306.75;4959838;28;20503;-74
2020/12/28 13:23:55;;;;;;;11.27;4.45;;;;;;;4.15;88.36;95306.81;4971222;28;20089;-74
2020/12/28 13:26:20;;;;;;;11.13;4.38;;;;;;;4.30;89.46;95300.94;4960604;28;20031;-74
2020/12/28 13:34:42;;;;;;;6.07;4.50;;;;;;;4.19;88.22;95298.91;4976195;28;20097;-69
2020/12/28 13:37:10;;;;;;;3.72;3.13;;;;;;;4.53;83.35;95304.91;4975518;28;20066;-68
2020/12/28 13:39:36;;;;;;;4.72;3.55;;;;;;;4.53;86.33;95307.47;4975268;28;20018;-72
2020/12/28 13:42:02;;;;;;;7.13;4.20;;;;;;;4.60;86.54;95301.97;4973273;28;20023;-67
2020/12/28 13:44:28;;;;;;;5.85;3.80;;;;;;;4.51;84.05;95306.75;4965351;28;20042;-69
2020/12/28 13:46:54;;;;;;;4.75;2.60;;;;;;;4.81;83.80;95318.00;4937349;28;20027;-73
2020/12/28 13:49:19;;;;;;;4.47;2.63;;;;;;;4.75;81.92;95315.75;4963703;28;20107;-69
2020/12/28 13:51:44;;;;;;;6.70;3.42;;;;;;;4.79;82.86;95314.69;4959565;28;20046;-74
2020/12/28 13:54:10;;;;;;;3.15;1.90;;;;;;;4.97;83.19;95312.06;4964552;28;20023;-71
2020/12/28 13:56:35;;;;;;;4.07;2.10;;;;;;;4.75;85.68;95317.50;4966534;28;20031;-71
2020/12/28 13:59:01;;;;;;;3.78;2.10;;;;;;;4.85;81.90;95314.38;4960247;28;20082;-71
2020/12/28 14:01:28;;;;;;;5.57;2.75;;;;;;;4.76;82.49;95324.28;4955804;28;20540;-71
2020/12/28 14:03:53;;;;;;;6.50;2.30;;;;;;;4.75;83.36;95318.31;4960696;28;20015;-70
2020/12/28 14:06:19;;;;;;;3.10;1.60;;;;;;;4.72;84.72;95333.03;4965916;28;20019;-71
2020/12/28 14:08:46;;;;;;;2.00;1.75;;;;;;;4.75;84.60;95328.59;4967193;28;20459;-71
2020/12/28 14:11:16;;;;;;;2.72;1.40;;;;;;;4.96;83.33;95333.50;4940526;28;20102;-71
2020/12/28 14:13:42;;;;;;;;;;;;;;;4.87;81.15;95333.06;4943829;28;20037;-73
2020/12/28 14:16:09;;;;;;;1.13;1.00;;;;;;;4.81;81.31;95338.53;4956624;28;19911;-71
2020/12/28 14:18:34;;;;;;;3.78;1.90;;;;;;;4.65;83.06;95337.66;4963758;28;20030;-71
2020/12/28 14:21:00;;;;;;;4.93;1.70;;;;;;;4.72;82.29;95338.97;4954052;28;20694;-75
2020/12/28 14:23:25;;;;;;;5.18;2.65;;;;;;;4.74;81.58;95341.47;4970755;28;20034;-71
2020/12/28 14:25:50;;;;;;;1.48;1.13;;;;;;;4.65;81.34;95332.53;4960028;28;20019;-71
2020/12/28 14:28:16;;;;;;;1.50;1.10;;;;;;;4.72;81.14;95338.97;4966094;28;20089;-71
2020/12/28 14:30:41;;;;;;;3.05;1.75;;;;;;;4.64;81.43;95341.09;4966445;28;20057;-71
2020/12/28 14:33:06;;;;;;;2.53;1.10;;;;;;;4.62;82.07;95342.91;4959075;28;20039;-71
2020/12/28 14:35:32;;;;;;;1.30;1.10;;;;;;;4.60;81.08;95335.31;4970841;28;20038;-71
2020/12/28 14:37:57;;;;;;;1.10;1.00;;;;;;;4.56;80.80;95344.06;4955439;28;20019;-71
2020/12/28 14:40:22;;;;;;;2.50;1.13;;;;;;;4.48;81.41;95345.34;4954658;29;20031;-71
2020/12/28 14:42:48;;;;;;;6.68;1.50;;;;;;;4.44;82.23;95343.81;4954972;28;20027;-72
2020/12/28 14:45:13;;;;;;;0.90;0.90;;;;;;;4.46;81.97;95350.53;4970320;28;20027;-72
2020/12/28 14:47:38;;;;;;;3.50;1.98;;;;;;;4.36;81.37;95347.59;4954578;28;20110;-72
2020/12/28 14:50:04;;;;;;;1.25;1.08;;;;;;;4.24;81.76;95353.31;4955079;28;20042;-72
2020/12/28 14:52:30;;;;;;;1.80;1.63;;;;;;;4.21;82.25;95363.72;4954740;28;20063;-72
2020/12/28 14:54:55;;;;;;;8.30;2.15;;;;;;;4.20;81.36;95364.59;4954572;28;20370;-72
2020/12/28 14:57:20;;;;;;;2.50;1.20;;;;;;;4.11;81.95;95365.91;4955061;28;20439;-72
2020/12/28 14:59:45;;;;;;;4.35;1.52;;;;;;;4.16;81.50;95372.50;4968886;28;20027;-72
2020/12/28 15:02:11;;;;;;;2.60;1.42;;;;;;;4.10;80.70;95366.78;4954424;28;20015;-72
2020/12/28 15:04:37;;;;;;;5.88;1.50;;;;;;;4.06;82.35;95374.69;4965577;28;20109;-72
2020/12/28 15:07:02;;;;;;;2.03;1.35;;;;;;;4.05;80.53;95378.16;4958418;28;20465;-72
2020/12/28 15:09:28;;;;;;;8.15;3.40;;;;;;;4.03;80.76;95385.09;4956383;28;20027;-72
2020/12/28 15:11:53;;;;;;;1.10;1.00;;;;;;;4.08;81.60;95388.25;4968139;28;20078;-72
2020/12/28 15:14:18;;;;;;;10.80;6.20;;;;;;;4.09;80.36;95395.03;4962652;28;20031;-72
2020/12/28 15:16:43;;;;;;;2.60;1.60;;;;;;;4.11;80.89;95398.38;4939176;29;20027;-72
2020/12/28 15:19:09;;;;;;;1.70;1.58;;;;;;;4.21;80.11;95401.31;4954830;28;20365;-72
2020/12/28 15:21:34;;;;;;;4.43;2.28;;;;;;;4.19;78.83;95387.75;4969738;28;20023;-73
2020/12/28 15:23:59;;;;;;;7.70;3.10;;;;;;;4.21;79.07;95394.47;4960206;28;20022;-72
2020/12/28 15:26:26;;;;;;;6.30;3.25;;;;;;;4.22;79.94;95401.25;4963801;28;20031;-73
2020/12/28 15:28:52;;;;;;;7.10;2.75;;;;;;;4.23;78.00;95397.78;4967125;28;20030;-72
2020/12/28 15:31:17;;;;;;;3.40;1.92;;;;;;;4.25;77.96;95400.25;4955754;28;20027;-73
2020/12/28 15:33:43;;;;;;;1.52;1.25;;;;;;;4.28;77.60;95406.06;4957725;28;20077;-73
2020/12/28 15:36:08;;;;;;;2.63;1.88;;;;;;;4.27;77.46;95403.59;4965802;28;20031;-73
2020/12/28 15:38:34;;;;;;;2.42;1.90;;;;;;;4.20;77.54;95404.78;4954592;28;20030;-73
2020/12/28 15:41:03;;;;;;;4.57;2.45;;;;;;;4.13;78.85;95401.69;4967664;28;20035;-73
2020/12/28 15:43:28;;;;;;;3.22;1.73;;;;;;;4.19;77.30;95401.38;4956939;28;20034;-73
2020/12/28 15:45:54;;;;;;;3.95;1.95;;;;;;;4.17;77.24;95403.19;4967833;28;20035;-74
2020/12/28 15:48:19;;;;;;;1.10;1.10;;;;;;;4.21;76.59;95394.47;4962263;28;20145;-73
2020/12/28 15:50:44;;;;;;;3.08;1.58;;;;;;;4.12;77.40;95405.16;4967043;28;20051;-73
2020/12/28 15:53:10;;;;;;;6.05;2.13;;;;;;;4.09;78.50;95402.72;4953908;28;20027;-68
2020/12/28 15:55:35;;;;;;;6.15;2.30;;;;;;;4.14;76.22;95408.47;4956956;28;20383;-70
2020/12/28 15:58:00;;;;;;;1.95;1.67;;;;;;;4.10;75.60;95400.06;4966366;28;20035;-68
2020/12/28 16:00:26;;;;;;;1.23;1.13;;;;;;;4.21;75.45;95403.91;4940555;28;20031;-71
2020/12/28 16:02:51;;;;;;;1.20;1.10;;;;;;;4.18;76.83;95404.03;4941453;28;20023;-73
2020/12/28 16:05:16;;;;;;;1.33;1.17;;;;;;;4.18;76.44;95398.91;4943169;28;20349;-73
2020/12/28 16:07:41;;;;;;;2.28;1.60;;;;;;;4.10;77.03;95406.94;4945321;28;20127;-73
2020/12/28 16:10:08;;;;;;;2.17;1.98;;;;;;;4.06;76.93;95410.53;4946433;28;20023;-67
2020/12/28 16:12:33;;;;;;;3.70;2.05;;;;;;;4.12;76.38;95412.84;4945242;28;20115;-69
2020/12/28 16:14:59;;;;;;;2.40;1.40;;;;;;;4.13;76.76;95411.94;4948191;28;20110;-67
2020/12/28 16:17:24;;;;;;;1.23;1.13;;;;;;;4.11;77.15;95424.00;4948122;28;20122;-71
2020/12/28 16:19:49;;;;;;;2.42;1.40;;;;;;;4.18;78.02;95422.78;4949315;29;20108;-70
2020/12/28 16:22:15;;;;;;;1.60;1.20;;;;;;;4.04;77.48;95427.72;4945761;29;20027;-65
2020/12/28 16:24:40;;;;;;;1.35;1.25;;;;;;;4.12;77.00;95418.78;4943241;29;20039;-72
2020/12/28 16:27:05;;;;;;;3.05;1.30;;;;;;;4.15;76.48;95417.78;4946534;29;20031;-73
2020/12/28 16:29:30;;;;;;;2.90;1.42;;;;;;;4.13;75.06;95427.28;4946344;29;20038;-67
2020/12/28 16:31:59;;;;;;;1.42;1.20;;;;;;;4.14;76.13;95434.06;4945767;29;20047;-71
2020/12/28 16:34:26;;;;;;;3.13;1.50;;;;;;;4.07;76.38;95437.84;4948810;29;20033;-80
2020/12/28 16:36:56;;;;;;;2.13;1.70;;;;;;;4.03;76.72;95437.13;4927114;29;20038;-73
2020/12/28 16:39:21;;;;;;;2.08;1.15;;;;;;;4.05;75.90;95455.00;4945509;29;20564;-74
2020/12/28 16:41:49;;;;;;;1.60;1.25;;;;;;;4.11;77.15;95449.59;4943614;29;20108;-74
2020/12/28 16:44:14;;;;;;;2.30;1.42;;;;;;;3.98;75.93;95451.06;4942951;29;20077;-74
2020/12/28 16:46:39;;;;;;;2.25;2.03;;;;;;;4.03;76.35;95451.69;4948620;29;20023;-73
2020/12/28 16:49:04;;;;;;;58.35;33.78;;;;;;;4.10;75.75;95458.16;4948662;29;20157;-73
2020/12/28 16:51:30;;;;;;;10.70;6.50;;;;;;;4.09;76.86;95462.47;4945524;29;20035;-70
2020/12/28 16:53:55;;;;;;;2.22;1.60;;;;;;;3.98;75.71;95458.75;4948306;29;20038;-74
2020/12/28 16:56:20;;;;;;;1.30;1.02;;;;;;;4.07;74.39;95463.44;4948502;29;20074;-74
2020/12/28 16:58:46;;;;;;;3.58;1.75;;;;;;;4.06;75.30;95459.19;4946296;29;20066;-70
2020/12/28 17:01:15;;;;;;;2.10;1.17;;;;;;;4.01;75.22;95462.00;4942626;28;20483;-68
2020/12/28 17:03:41;;;;;;;3.83;2.20;;;;;;;3.99;74.64;95458.66;4942547;29;20019;-71
2020/12/28 17:06:06;;;;;;;2.35;1.52;;;;;;;3.98;74.57;95449.31;4948410;28;20451;-71
2020/12/28 17:08:32;;;;;;;3.75;1.38;;;;;;;4.00;74.65;95442.38;4948146;29;20027;-71
2020/12/28 17:10:57;;;;;;;1.30;1.20;;;;;;;3.96;73.79;95456.22;4948013;29;20099;-71
2020/12/28 17:13:22;;;;;;;3.28;1.98;;;;;;;4.04;72.90;95454.16;4948011;29;20034;-71
2020/12/28 17:15:48;;;;;;;4.13;1.77;;;;;;;4.01;73.97;95468.84;4947888;29;20042;-71
2020/12/28 17:18:13;;;;;;;3.00;1.70;;;;;;;3.97;74.57;95467.34;4942286;29;20035;-71
2020/12/28 17:20:38;;;;;;;1.77;1.42;;;;;;;3.91;74.93;95462.47;4947087;28;20085;-71
2020/12/28 17:23:04;;;;;;;1.58;1.38;;;;;;;3.92;75.02;95474.41;4943050;29;20030;-71
2020/12/28 17:25:29;;;;;;;3.13;1.70;;;;;;;3.88;74.82;95471.13;4941696;29;20027;-71
2020/12/28 17:27:54;;;;;;;3.35;2.10;;;;;;;3.88;75.29;95472.88;4942145;29;20114;-71
2020/12/28 17:30:20;;;;;;;5.50;1.30;;;;;;;3.88;74.42;95478.81;4941808;29;20441;-71
2020/12/28 17:32:48;;;;;;;1.95;1.40;;;;;;;3.83;74.66;95475.63;4945749;28;20031;-71
2020/12/28 17:35:17;;;;;;;3.30;1.50;;;;;;;3.81;74.93;95479.97;4947858;28;20046;-71
2020/12/28 17:37:45;;;;;;;1.92;1.40;;;;;;;3.71;75.61;95469.31;4947735;29;20027;-71
2020/12/28 17:40:12;;;;;;;1.73;1.10;;;;;;;3.80;72.47;95470.63;4947658;29;20039;-71
2020/12/28 17:42:40;;;;;;;3.17;1.50;;;;;;;3.70;73.48;95477.91;4943374;29;20027;-71